F/V Mirentxu 1 — FNSF — position and weather

sailwx.info

Track history (hours):
 
Tides and Currents Weather Stations Pressure Air Temp Water Temp Dewpoint Dewpoint Depression Visibility Wind Speed Wind Dir Waves Ship Positions

F/V Mirentxu 1

Last reported at 2018-May-25 03:12 UTC. Time now 2018-May-27 03:02 UTC.
Position N 48°06' W 004°19'.

Length 16 m; draft 3 m.

Type: Fishing. MMSI: 228302900.

Date/timePositionNaut miles runAvg speedWind from/ knotsBaromVisibWave heightAir tempDewpointWater temp
2018-May-25 03:12N 48°06' W 004°19'0 0.5
2018-May-25 02:38N 48°06' W 004°20'0 0.4
2018-May-25 02:23N 48°06' W 004°20'0 0.0
2018-May-25 02:00N 48°06' W 004°20'0 0.0
2018-May-25 01:21N 48°06' W 004°20'3 7.9
2018-May-25 01:00N 48°09' W 004°19'3 4.3
2018-May-25 00:25N 48°11' W 004°19'0 0.2
2018-May-25 00:00N 48°11' W 004°19'3 5.8
2018-May-24 23:30N 48°12' W 004°23'3 5.8
2018-May-24 23:00N 48°11' W 004°27'4 8.4
2018-May-24 22:30N 48°09' W 004°33'0 0.4
2018-May-24 21:50N 48°09' W 004°33'1 1.7
2018-May-24 21:30N 48°08' W 004°33'1 2.1
2018-May-24 21:00N 48°07' W 004°34'0 0.2
2018-May-24 20:30N 48°07' W 004°34'3 6.4
2018-May-24 20:00N 48°10' W 004°31'4 8.3
2018-May-24 19:30N 48°12' W 004°25'3 6.8
2018-May-24 19:00N 48°11' W 004°20'4 8.1
2018-May-24 18:30N 48°07' W 004°19'1 0.1
2018-May-24 03:43N 48°06' W 004°19'0 0.2
2018-May-24 03:27N 48°06' W 004°19'1 3.3
2018-May-24 03:00N 48°07' W 004°21'4 8.3
2018-May-24 02:30N 48°09' W 004°26'4 8.2
2018-May-24 02:00N 48°09' W 004°32'3 6.8
2018-May-24 01:30N 48°09' W 004°37'2 4.9
2018-May-24 01:00N 48°10' W 004°40'4 8.6
2018-May-24 00:30N 48°13' W 004°45'4 8.8
2018-May-24 00:01N 48°17' W 004°49'1 3.0
2018-May-23 23:30N 48°18' W 004°50'0 0.5
2018-May-23 23:00N 48°18' W 004°49'4 8.3
2018-May-23 22:30N 48°16' W 004°44'3 5.6
2018-May-23 22:00N 48°15' W 004°40'3 6.6
2018-May-23 21:30N 48°13' W 004°36'4 8.5
2018-May-23 21:00N 48°11' W 004°41'3 6.2
2018-May-23 20:31N 48°11' W 004°46'2 4.2
2018-May-23 20:01N 48°12' W 004°44'5 8.8
2018-May-23 19:30N 48°10' W 004°38'5 8.6
2018-May-23 18:52N 48°09' W 004°30'3 8.6
2018-May-23 18:29N 48°08' W 004°26'4 8.6
2018-May-23 18:00N 48°06' W 004°20'1 0.0
2018-May-23 03:43N 48°06' W 004°19'0 0.8
2018-May-23 03:30N 48°06' W 004°19'0 0.0
2018-May-23 02:58N 48°06' W 004°19'3 6.4
2018-May-23 02:30N 48°09' W 004°20'3 5.2
2018-May-23 02:00N 48°11' W 004°21'4 8.6
2018-May-23 01:30N 48°10' W 004°27'4 8.3
2018-May-23 01:00N 48°09' W 004°33'4 7.0
2018-May-23 00:30N 48°10' W 004°38'0 0.5
2018-May-23 00:00N 48°10' W 004°38'3 6.7
2018-May-22 23:30N 48°09' W 004°43'2 4.1
2018-May-22 23:00N 48°11' W 004°40'1 2.0
2018-May-22 22:30N 48°11' W 004°39'1 1.0
2018-May-22 22:00N 48°10' W 004°39'1 1.0
2018-May-22 21:30N 48°10' W 004°38'0 0.4
2018-May-22 21:00N 48°10' W 004°38'3 6.5
2018-May-22 20:30N 48°13' W 004°37'1 2.5
2018-May-22 20:00N 48°14' W 004°36'4 7.7
2018-May-22 19:27N 48°10' W 004°34'4 8.6
2018-May-22 18:56N 48°08' W 004°27'3 7.0
2018-May-22 18:30N 48°07' W 004°23'3 5.3
2018-May-22 17:58N 48°06' W 004°19'0 0.0
2018-May-22 03:49N 48°06' W 004°19'0 0.0
2018-May-22 03:30N 48°06' W 004°19'0 0.0
2018-May-22 03:00N 48°06' W 004°19'0 0.0
2018-May-22 02:30N 48°06' W 004°19'3 5.0
2018-May-22 02:00N 48°07' W 004°23'4 8.2
2018-May-22 01:30N 48°08' W 004°29'4 8.0
2018-May-22 01:00N 48°10' W 004°34'2 3.8
2018-May-22 00:31N 48°11' W 004°37'0 0.2
2018-May-22 00:00N 48°11' W 004°37'3 5.5
2018-May-21 23:30N 48°13' W 004°36'1 1.1
2018-May-21 23:01N 48°14' W 004°35'0 0.1
2018-May-21 22:31N 48°14' W 004°35'1 1.2
2018-May-21 22:01N 48°13' W 004°36'1 1.4
2018-May-21 21:30N 48°13' W 004°37'4 7.6
2018-May-21 21:00N 48°12' W 004°42'0 0.3
2018-May-21 20:30N 48°12' W 004°42'1 1.3
2018-May-21 20:00N 48°12' W 004°41'2 4.7
2018-May-21 19:31N 48°10' W 004°39'6 8.7
2018-May-21 18:52N 48°09' W 004°31'3 8.7
2018-May-21 18:30N 48°08' W 004°26'4 8.5
2018-May-21 18:00N 48°07' W 004°20'1 2.0
2018-May-21 17:30N 48°06' W 004°19'  
Track history (hours):
 
Tides and Currents Weather Stations Pressure Air Temp Water Temp Dewpoint Dewpoint Depression Visibility Wind Speed Wind Dir Waves Ship Positions

F/V Mirentxu 1

Last reported at 2018-May-25 03:12 UTC. Time now 2018-May-27 03:02 UTC.
Position N 48°06' W 004°19'.

Length 16 m; draft 3 m.

Type: Fishing. MMSI: 228302900.

Date/timePositionNaut miles runAvg speedWind from/ knotsBaromVisibWave heightAir tempDewpointWater temp
2018-May-25 03:12N 48°06' W 004°19'0 0.5
2018-May-25 02:38N 48°06' W 004°20'0 0.4
2018-May-25 02:23N 48°06' W 004°20'0 0.0
2018-May-25 02:00N 48°06' W 004°20'0 0.0
2018-May-25 01:21N 48°06' W 004°20'3 7.9
2018-May-25 01:00N 48°09' W 004°19'3 4.3
2018-May-25 00:25N 48°11' W 004°19'0 0.2
2018-May-25 00:00N 48°11' W 004°19'3 5.8
2018-May-24 23:30N 48°12' W 004°23'3 5.8
2018-May-24 23:00N 48°11' W 004°27'4 8.4
2018-May-24 22:30N 48°09' W 004°33'0 0.4
2018-May-24 21:50N 48°09' W 004°33'1 1.7
2018-May-24 21:30N 48°08' W 004°33'1 2.1
2018-May-24 21:00N 48°07' W 004°34'0 0.2
2018-May-24 20:30N 48°07' W 004°34'3 6.4
2018-May-24 20:00N 48°10' W 004°31'4 8.3
2018-May-24 19:30N 48°12' W 004°25'3 6.8
2018-May-24 19:00N 48°11' W 004°20'4 8.1
2018-May-24 18:30N 48°07' W 004°19'1 0.1
2018-May-24 03:43N 48°06' W 004°19'0 0.2
2018-May-24 03:27N 48°06' W 004°19'1 3.3
2018-May-24 03:00N 48°07' W 004°21'4 8.3
2018-May-24 02:30N 48°09' W 004°26'4 8.2
2018-May-24 02:00N 48°09' W 004°32'3 6.8
2018-May-24 01:30N 48°09' W 004°37'2 4.9
2018-May-24 01:00N 48°10' W 004°40'4 8.6
2018-May-24 00:30N 48°13' W 004°45'4 8.8
2018-May-24 00:01N 48°17' W 004°49'1 3.0
2018-May-23 23:30N 48°18' W 004°50'0 0.5
2018-May-23 23:00N 48°18' W 004°49'4 8.3
2018-May-23 22:30N 48°16' W 004°44'3 5.6
2018-May-23 22:00N 48°15' W 004°40'3 6.6
2018-May-23 21:30N 48°13' W 004°36'4 8.5
2018-May-23 21:00N 48°11' W 004°41'3 6.2
2018-May-23 20:31N 48°11' W 004°46'2 4.2
2018-May-23 20:01N 48°12' W 004°44'5 8.8
2018-May-23 19:30N 48°10' W 004°38'5 8.6
2018-May-23 18:52N 48°09' W 004°30'3 8.6
2018-May-23 18:29N 48°08' W 004°26'4 8.6
2018-May-23 18:00N 48°06' W 004°20'1 0.0
2018-May-23 03:43N 48°06' W 004°19'0 0.8
2018-May-23 03:30N 48°06' W 004°19'0 0.0
2018-May-23 02:58N 48°06' W 004°19'3 6.4
2018-May-23 02:30N 48°09' W 004°20'3 5.2
2018-May-23 02:00N 48°11' W 004°21'4 8.6
2018-May-23 01:30N 48°10' W 004°27'4 8.3
2018-May-23 01:00N 48°09' W 004°33'4 7.0
2018-May-23 00:30N 48°10' W 004°38'0 0.5
2018-May-23 00:00N 48°10' W 004°38'3 6.7
2018-May-22 23:30N 48°09' W 004°43'2 4.1
2018-May-22 23:00N 48°11' W 004°40'1 2.0
2018-May-22 22:30N 48°11' W 004°39'1 1.0
2018-May-22 22:00N 48°10' W 004°39'1 1.0
2018-May-22 21:30N 48°10' W 004°38'0 0.4
2018-May-22 21:00N 48°10' W 004°38'3 6.5
2018-May-22 20:30N 48°13' W 004°37'1 2.5
2018-May-22 20:00N 48°14' W 004°36'4 7.7
2018-May-22 19:27N 48°10' W 004°34'4 8.6
2018-May-22 18:56N 48°08' W 004°27'3 7.0
2018-May-22 18:30N 48°07' W 004°23'3 5.3
2018-May-22 17:58N 48°06' W 004°19'0 0.0
2018-May-22 03:49N 48°06' W 004°19'0 0.0
2018-May-22 03:30N 48°06' W 004°19'0 0.0
2018-May-22 03:00N 48°06' W 004°19'0 0.0
2018-May-22 02:30N 48°06' W 004°19'3 5.0
2018-May-22 02:00N 48°07' W 004°23'4 8.2
2018-May-22 01:30N 48°08' W 004°29'4 8.0
2018-May-22 01:00N 48°10' W 004°34'2 3.8
2018-May-22 00:31N 48°11' W 004°37'0 0.2
2018-May-22 00:00N 48°11' W 004°37'3 5.5
2018-May-21 23:30N 48°13' W 004°36'1 1.1
2018-May-21 23:01N 48°14' W 004°35'0 0.1
2018-May-21 22:31N 48°14' W 004°35'1 1.2
2018-May-21 22:01N 48°13' W 004°36'1 1.4
2018-May-21 21:30N 48°13' W 004°37'4 7.6
2018-May-21 21:00N 48°12' W 004°42'0 0.3
2018-May-21 20:30N 48°12' W 004°42'1 1.3
2018-May-21 20:00N 48°12' W 004°41'2 4.7
2018-May-21 19:31N 48°10' W 004°39'6 8.7
2018-May-21 18:52N 48°09' W 004°31'3 8.7
2018-May-21 18:30N 48°08' W 004°26'4 8.5
2018-May-21 18:00N 48°07' W 004°20'1 2.0
2018-May-21 17:30N 48°06' W 004°19'  

Dump ship's entire track history